Weather History for Pinedale, WY

Change the Weather History Date:

Saturday, May 11, 2013

  Actual Average (KBPI) Record (KBPI)
Temperature  
Mean Temperature 48 °F 44 °F  
Max Temperature 68 °F 60 °F 87 °F (2007)
Min Temperature 28 °F 29 °F 15 °F (1999)
Degree Days  
Heating Degree Days 17 21  
Month to date heating degree days 245  
Since 1 July heating degree days 9776  
Cooling Degree Days 0 0  
Month to date cooling degree days 0  
Year to date cooling degree days 0  
Moisture  
Dew Point 26 °F    
Average Humidity 47    
Maximum Humidity 86    
Minimum Humidity 13    
Precipitation  
Precipitation 0.00 in 0.03 in 0.67 in (2000)
Month to date precipitation 0.28  
Year to date precipitation 1.91  
Sea Level Pressure  
Sea Level Pressure 30.41 in    
Wind  
Wind Speed 7 mph (WNW)    
Max Wind Speed 24 mph    
Max Gust Speed 37 mph    
Visibility 10 miles    
Events      
T = Trace of Precipitation, MM = Missing Value Source: NWS Daily Summary

Daily Weather History Graph

Daily Weather History Graph

Search for Another Location

Airport:

Trip Planner

Search our weather history database for the weather conditions in past years. The results will help you decide how hot, cold, wet, or windy it might be!

Date:

Astronomy

May. 11, 2013 Rise Set
Actual Time 6:00 AM MDT 8:31 PM MDT
Civil Twilight 5:28 AM MDT 9:03 PM MDT
Nautical Twilight 4:48 AM MDT 9:43 PM MDT
Astronomical Twilight 4:03 AM MDT 10:28 PM MDT
Moon 7:10 AM MDT (5/11) 10:15 PM MDT (5/11)
Length of Visible Light 15h 34m
Length of Day
14h 30m
Waxing Crescent, 3% of the Moon is Illuminated
May 11
Waxing Crescent
May 17
First Quarter
May 24
Full
May 31
Last Quarter
Jun 8
New

Hourly Weather History & Observations

Time (MDT) Temp. Windchill Dew Point Humidity Pressure Visibility Wind Dir Wind Speed Gust Speed Precip Events Conditions
12:15 AM 39.2 °F 33.6 °F 28.4 °F 65% 30.43 in 10.0 mi NW 8.1 mph - N/A   Scattered Clouds
12:35 AM 35.6 °F - 26.6 °F 70% 30.44 in 10.0 mi Calm Calm - N/A   Clear
12:55 AM 35.6 °F - 26.6 °F 70% 30.45 in 10.0 mi Calm Calm - N/A   Scattered Clouds
1:15 AM 35.6 °F 30.7 °F 26.6 °F 70% 30.45 in 10.0 mi West 5.8 mph - N/A   Mostly Cloudy
1:35 AM 35.6 °F 29.9 °F 26.6 °F 70% 30.46 in 10.0 mi West 6.9 mph - N/A   Mostly Cloudy
1:55 AM 33.8 °F 27.7 °F 26.6 °F 75% 30.45 in 10.0 mi NW 6.9 mph - N/A   Scattered Clouds
2:15 AM 32.0 °F 24.8 °F 26.6 °F 80% 30.45 in 10.0 mi NW 8.1 mph - N/A   Clear
2:35 AM 32.0 °F 25.6 °F 26.6 °F 80% 30.46 in 10.0 mi NW 6.9 mph - N/A   Clear
2:55 AM 32.0 °F 28.7 °F 24.8 °F 75% 30.46 in 10.0 mi West 3.5 mph - N/A   Clear
3:15 AM 32.0 °F 26.4 °F 26.6 °F 80% 30.46 in 10.0 mi NW 5.8 mph - N/A   Clear
3:35 AM 32.0 °F 26.4 °F 24.8 °F 75% 30.46 in 10.0 mi NW 5.8 mph - N/A   Scattered Clouds
3:55 AM 30.2 °F 24.3 °F 23.0 °F 75% 30.47 in 10.0 mi WNW 5.8 mph - N/A   Mostly Cloudy
4:15 AM 30.2 °F 23.4 °F 24.8 °F 80% 30.47 in 10.0 mi NW 6.9 mph - N/A   Scattered Clouds
4:35 AM 28.4 °F 24.6 °F 23.0 °F 80% 30.47 in 10.0 mi WNW 3.5 mph - N/A   Clear
4:55 AM 30.2 °F 25.4 °F 24.8 °F 80% 30.47 in 10.0 mi WNW 4.6 mph - N/A   Clear
5:15 AM 30.2 °F 26.7 °F 24.8 °F 80% 30.47 in 10.0 mi WNW 3.5 mph - N/A   Mostly Cloudy
5:35 AM 30.2 °F 25.4 °F 24.8 °F 80% 30.47 in 10.0 mi WNW 4.6 mph - N/A   Overcast
5:55 AM 30.2 °F 26.7 °F 24.8 °F 80% 30.47 in 10.0 mi NW 3.5 mph - N/A   Mostly Cloudy
6:15 AM 30.2 °F 24.3 °F 26.6 °F 86% 30.47 in 10.0 mi NW 5.8 mph - N/A   Scattered Clouds
6:35 AM 30.2 °F 25.4 °F 26.6 °F 86% 30.47 in 10.0 mi West 4.6 mph - N/A   Clear
6:55 AM 32.0 °F 27.5 °F 26.6 °F 80% 30.47 in 10.0 mi WNW 4.6 mph - N/A   Clear
7:15 AM 33.8 °F 30.8 °F 28.4 °F 81% 30.47 in 10.0 mi WNW 3.5 mph - N/A   Clear
7:35 AM 37.4 °F 34.9 °F 30.2 °F 75% 30.47 in 10.0 mi WNW 3.5 mph - N/A   Clear
7:55 AM 41.0 °F - 30.2 °F 65% 30.47 in 10.0 mi Calm Calm - N/A   Clear
8:15 AM 42.8 °F - 32.0 °F 66% 30.47 in 10.0 mi Calm Calm - N/A   Clear
8:35 AM 46.4 °F - 32.0 °F 57% 30.46 in 10.0 mi Calm Calm - N/A   Clear
8:55 AM 50.0 °F - 32.0 °F 50% 30.46 in 10.0 mi Calm Calm - N/A   Clear
9:15 AM 53.6 °F - 32.0 °F 44% 30.45 in 10.0 mi Calm Calm - N/A   Clear
9:35 AM 53.6 °F - 32.0 °F 44% 30.45 in 10.0 mi West 3.5 mph - N/A   Clear
9:55 AM 53.6 °F - 30.2 °F 41% 30.45 in 10.0 mi NNW 3.5 mph - N/A   Clear
10:15 AM 55.4 °F - 30.2 °F 38% 30.44 in 10.0 mi Calm Calm - N/A   Clear
10:35 AM 55.4 °F - 30.2 °F 38% 30.44 in 10.0 mi Calm Calm - N/A   Clear
10:55 AM 59.0 °F - 30.2 °F 34% 30.43 in 10.0 mi WNW 4.6 mph - N/A   Clear
11:15 AM 59.0 °F - 30.2 °F 34% 30.43 in 10.0 mi Calm Calm - N/A   Clear
11:35 AM 59.0 °F - 26.6 °F 29% 30.43 in 10.0 mi NNW 6.9 mph - N/A   Clear
11:55 AM 59.0 °F - 26.6 °F 29% 30.42 in 10.0 mi NW 6.9 mph - N/A   Scattered Clouds
12:15 PM 60.8 °F - 23.0 °F 23% 30.42 in 10.0 mi NW 5.8 mph - N/A   Scattered Clouds
12:35 PM 60.8 °F - 24.8 °F 25% 30.41 in 10.0 mi NW 12.7 mph 16.1 mph N/A   Scattered Clouds
12:55 PM 62.6 °F - 24.8 °F 24% 30.40 in 10.0 mi SW 8.1 mph - N/A   Scattered Clouds
1:15 PM 62.6 °F - 24.8 °F 24% 30.39 in 10.0 mi WNW 6.9 mph 16.1 mph N/A   Scattered Clouds
1:35 PM 64.4 °F - 23.0 °F 21% 30.38 in 10.0 mi North 4.6 mph 19.6 mph N/A   Scattered Clouds
1:55 PM 62.6 °F - 19.4 °F 19% 30.38 in 10.0 mi WNW 15.0 mph - N/A   Scattered Clouds
2:15 PM 66.2 °F - 19.4 °F 17% 30.37 in 10.0 mi West 18.4 mph 21.9 mph N/A   Scattered Clouds
2:35 PM 68.0 °F - 17.6 °F 15% 30.37 in 10.0 mi WNW 18.4 mph 33.4 mph N/A   Scattered Clouds
2:55 PM 68.0 °F - 15.8 °F 13% 30.36 in 10.0 mi WNW 19.6 mph 27.6 mph N/A   Clear
3:15 PM 64.4 °F - 19.4 °F 18% 30.36 in 10.0 mi WNW 13.8 mph 23.0 mph N/A   Scattered Clouds
3:35 PM 64.4 °F - 19.4 °F 18% 30.35 in 10.0 mi NW 18.4 mph 24.2 mph N/A   Scattered Clouds
3:55 PM 64.4 °F - 21.2 °F 19% 30.35 in 10.0 mi WNW 15.0 mph 24.2 mph N/A   Mostly Cloudy
4:15 PM 66.2 °F - 24.8 °F 21% 30.35 in 10.0 mi NW 21.9 mph 31.1 mph N/A   Overcast
4:35 PM 66.2 °F - 23.0 °F 19% 30.35 in 10.0 mi WNW 20.7 mph 29.9 mph N/A   Overcast
4:55 PM 66.2 °F - 19.4 °F 17% 30.34 in 10.0 mi NW 15.0 mph - N/A   Scattered Clouds
5:15 PM 64.4 °F - 23.0 °F 21% 30.35 in 10.0 mi NW 24.2 mph 36.8 mph N/A   Clear
5:35 PM 60.8 °F - 26.6 °F 27% 30.35 in 10.0 mi West 20.7 mph 32.2 mph N/A   Scattered Clouds
5:55 PM 62.6 °F - 21.2 °F 20% 30.35 in 10.0 mi WNW 9.2 mph - N/A   Scattered Clouds
6:15 PM 62.6 °F - 24.8 °F 24% 30.35 in 10.0 mi WNW 12.7 mph 18.4 mph N/A   Clear
6:35 PM 64.4 °F - 26.6 °F 24% 30.34 in 10.0 mi NW 11.5 mph 19.6 mph N/A   Scattered Clouds
6:55 PM 62.6 °F - 26.6 °F 26% 30.34 in 10.0 mi North 6.9 mph - N/A   Scattered Clouds
7:15 PM 60.8 °F - 26.6 °F 27% 30.33 in 10.0 mi North 3.5 mph - N/A   Clear
7:35 PM 60.8 °F - 28.4 °F 29% 30.33 in 10.0 mi NW 3.5 mph - N/A   Scattered Clouds
8:15 PM 57.2 °F - 26.6 °F 31% 30.33 in 10.0 mi West 10.4 mph - N/A   Clear
8:35 PM 53.6 °F - 26.6 °F 35% 30.33 in 10.0 mi WNW 6.9 mph - N/A   Scattered Clouds
8:55 PM 51.8 °F - 26.6 °F 38% 30.34 in 10.0 mi NW 8.1 mph - N/A   Mostly Cloudy
9:15 PM 50.0 °F - 28.4 °F 43% 30.34 in 10.0 mi NNW 6.9 mph - N/A   Overcast
9:35 PM 46.4 °F 42.9 °F 28.4 °F 50% 30.35 in 10.0 mi WNW 6.9 mph - N/A   Mostly Cloudy
9:55 PM 48.2 °F - 28.4 °F 46% 30.36 in 10.0 mi NW 9.2 mph - N/A   Mostly Cloudy
10:15 PM 50.0 °F - 28.4 °F 43% 30.36 in 10.0 mi WNW 8.1 mph - N/A   Mostly Cloudy
10:35 PM 48.2 °F - 28.4 °F 46% 30.36 in 10.0 mi WNW 6.9 mph - N/A   Scattered Clouds
10:55 PM 46.4 °F 42.9 °F 28.4 °F 50% 30.37 in 10.0 mi WNW 6.9 mph - N/A   Mostly Cloudy
11:15 PM 50.0 °F - 28.4 °F 43% 30.37 in 10.0 mi WNW 8.1 mph - N/A   Mostly Cloudy
11:35 PM 48.2 °F - 28.4 °F 46% 30.36 in 10.0 mi WNW 10.4 mph - N/A   Overcast
11:55 PM 46.4 °F 43.5 °F 28.4 °F 50% 30.36 in 10.0 mi NNW 5.8 mph - N/A   Overcast